sensor_id;sensor_type;location;lat;lon;timestamp;P1;durP1;ratioP1;P2;durP2;ratioP2
33357;SDS011;19717;42.614;23.418;2023-04-24T00:01:55;1.50;;;1.40;;
33357;SDS011;19717;42.614;23.418;2023-04-24T00:04:21;1.13;;;1.13;;
33357;SDS011;19717;42.614;23.418;2023-04-24T00:06:50;2.25;;;1.27;;
33357;SDS011;19717;42.614;23.418;2023-04-24T00:09:19;1.20;;;1.15;;
33357;SDS011;19717;42.614;23.418;2023-04-24T00:11:45;3.40;;;1.30;;
33357;SDS011;19717;42.614;23.418;2023-04-24T00:14:12;1.00;;;1.00;;
33357;SDS011;19717;42.614;23.418;2023-04-24T00:16:38;1.60;;;1.40;;
33357;SDS011;19717;42.614;23.418;2023-04-24T00:19:04;1.13;;;1.13;;
33357;SDS011;19717;42.614;23.418;2023-04-24T00:21:31;1.45;;;1.35;;
33357;SDS011;19717;42.614;23.418;2023-04-24T00:23:58;1.25;;;1.15;;
33357;SDS011;19717;42.614;23.418;2023-04-24T00:26:24;1.92;;;1.30;;
33357;SDS011;19717;42.614;23.418;2023-04-24T00:28:50;2.05;;;1.20;;
33357;SDS011;19717;42.614;23.418;2023-04-24T00:31:16;1.20;;;1.20;;
33357;SDS011;19717;42.614;23.418;2023-04-24T00:33:42;1.38;;;1.30;;
33357;SDS011;19717;42.614;23.418;2023-04-24T00:36:08;1.23;;;1.20;;
33357;SDS011;19717;42.614;23.418;2023-04-24T00:38:34;1.90;;;1.48;;
33357;SDS011;19717;42.614;23.418;2023-04-24T00:41:00;1.30;;;1.30;;
33357;SDS011;19717;42.614;23.418;2023-04-24T00:43:26;1.35;;;1.25;;
33357;SDS011;19717;42.614;23.418;2023-04-24T00:45:52;1.90;;;1.50;;
33357;SDS011;19717;42.614;23.418;2023-04-24T00:48:18;1.50;;;1.40;;
33357;SDS011;19717;42.614;23.418;2023-04-24T00:50:46;1.42;;;1.33;;
33357;SDS011;19717;42.614;23.418;2023-04-24T00:53:12;2.85;;;1.40;;
33357;SDS011;19717;42.614;23.418;2023-04-24T00:55:38;1.60;;;1.50;;
33357;SDS011;19717;42.614;23.418;2023-04-24T00:58:04;1.40;;;1.30;;
33357;SDS011;19717;42.614;23.418;2023-04-24T01:00:30;1.60;;;1.50;;
33357;SDS011;19717;42.614;23.418;2023-04-24T01:02:57;1.25;;;1.25;;
33357;SDS011;19717;42.614;23.418;2023-04-24T01:05:24;1.52;;;1.42;;
33357;SDS011;19717;42.614;23.418;2023-04-24T01:07:51;1.42;;;1.38;;
33357;SDS011;19717;42.614;23.418;2023-04-24T01:10:17;3.30;;;1.75;;
33357;SDS011;19717;42.614;23.418;2023-04-24T01:12:45;1.33;;;1.20;;
33357;SDS011;19717;42.614;23.418;2023-04-24T01:15:11;1.20;;;1.20;;
33357;SDS011;19717;42.614;23.418;2023-04-24T01:17:37;1.55;;;1.45;;
33357;SDS011;19717;42.614;23.418;2023-04-24T01:20:04;1.20;;;1.20;;
33357;SDS011;19717;42.614;23.418;2023-04-24T01:22:31;1.67;;;1.58;;
33357;SDS011;19717;42.614;23.418;2023-04-24T01:24:57;2.42;;;1.60;;
33357;SDS011;19717;42.614;23.418;2023-04-24T01:27:23;1.75;;;1.65;;
33357;SDS011;19717;42.614;23.418;2023-04-24T01:29:49;2.28;;;1.55;;
33357;SDS011;19717;42.614;23.418;2023-04-24T01:32:17;1.65;;;1.55;;
33357;SDS011;19717;42.614;23.418;2023-04-24T01:34:43;1.70;;;1.60;;
33357;SDS011;19717;42.614;23.418;2023-04-24T01:37:10;1.60;;;1.50;;
33357;SDS011;19717;42.614;23.418;2023-04-24T01:39:36;1.30;;;1.30;;
33357;SDS011;19717;42.614;23.418;2023-04-24T01:42:02;1.83;;;1.70;;
33357;SDS011;19717;42.614;23.418;2023-04-24T01:44:28;1.70;;;1.60;;
33357;SDS011;19717;42.614;23.418;2023-04-24T01:46:54;1.50;;;1.50;;
33357;SDS011;19717;42.614;23.418;2023-04-24T01:49:21;1.77;;;1.67;;
33357;SDS011;19717;42.614;23.418;2023-04-24T01:51:47;1.83;;;1.73;;
33357;SDS011;19717;42.614;23.418;2023-04-24T01:54:13;1.60;;;1.50;;
33357;SDS011;19717;42.614;23.418;2023-04-24T01:56:40;1.70;;;1.60;;
33357;SDS011;19717;42.614;23.418;2023-04-24T01:59:07;1.75;;;1.60;;
33357;SDS011;19717;42.614;23.418;2023-04-24T02:01:35;1.83;;;1.65;;
33357;SDS011;19717;42.614;23.418;2023-04-24T02:04:01;2.60;;;1.80;;
33357;SDS011;19717;42.614;23.418;2023-04-24T02:06:27;2.90;;;1.80;;
33357;SDS011;19717;42.614;23.418;2023-04-24T02:08:53;1.90;;;1.80;;
33357;SDS011;19717;42.614;23.418;2023-04-24T02:11:19;1.80;;;1.70;;
33357;SDS011;19717;42.614;23.418;2023-04-24T02:13:45;2.47;;;1.70;;
33357;SDS011;19717;42.614;23.418;2023-04-24T02:16:11;1.80;;;1.70;;
33357;SDS011;19717;42.614;23.418;2023-04-24T02:18:37;1.85;;;1.70;;
33357;SDS011;19717;42.614;23.418;2023-04-24T02:21:03;1.60;;;1.38;;
33357;SDS011;19717;42.614;23.418;2023-04-24T02:23:30;1.80;;;1.70;;
33357;SDS011;19717;42.614;23.418;2023-04-24T02:25:56;3.92;;;1.60;;
33357;SDS011;19717;42.614;23.418;2023-04-24T02:28:22;1.75;;;1.65;;
33357;SDS011;19717;42.614;23.418;2023-04-24T02:30:48;1.77;;;1.67;;
33357;SDS011;19717;42.614;23.418;2023-04-24T02:33:14;1.85;;;1.75;;
33357;SDS011;19717;42.614;23.418;2023-04-24T02:35:40;1.90;;;1.67;;
33357;SDS011;19717;42.614;23.418;2023-04-24T02:38:06;1.70;;;1.60;;
33357;SDS011;19717;42.614;23.418;2023-04-24T02:40:32;1.95;;;1.83;;
33357;SDS011;19717;42.614;23.418;2023-04-24T02:42:58;2.08;;;1.85;;
33357;SDS011;19717;42.614;23.418;2023-04-24T02:45:24;1.67;;;1.58;;
33357;SDS011;19717;42.614;23.418;2023-04-24T02:47:50;1.73;;;1.63;;
33357;SDS011;19717;42.614;23.418;2023-04-24T02:50:16;1.70;;;1.60;;
33357;SDS011;19717;42.614;23.418;2023-04-24T02:52:43;1.70;;;1.60;;
33357;SDS011;19717;42.614;23.418;2023-04-24T02:55:09;2.63;;;2.42;;
33357;SDS011;19717;42.614;23.418;2023-04-24T02:57:35;2.40;;;2.30;;
33357;SDS011;19717;42.614;23.418;2023-04-24T03:00:01;2.05;;;1.95;;
33357;SDS011;19717;42.614;23.418;2023-04-24T03:02:28;1.90;;;1.80;;
33357;SDS011;19717;42.614;23.418;2023-04-24T03:04:54;1.98;;;1.88;;
33357;SDS011;19717;42.614;23.418;2023-04-24T03:07:20;2.03;;;1.90;;
33357;SDS011;19717;42.614;23.418;2023-04-24T03:09:46;1.88;;;1.77;;
33357;SDS011;19717;42.614;23.418;2023-04-24T03:12:13;2.00;;;1.90;;
33357;SDS011;19717;42.614;23.418;2023-04-24T03:14:39;2.00;;;1.90;;
33357;SDS011;19717;42.614;23.418;2023-04-24T03:17:05;1.77;;;1.67;;
33357;SDS011;19717;42.614;23.418;2023-04-24T03:19:31;2.38;;;2.17;;
33357;SDS011;19717;42.614;23.418;2023-04-24T03:21:57;2.15;;;2.05;;
33357;SDS011;19717;42.614;23.418;2023-04-24T03:24:23;2.13;;;2.03;;
33357;SDS011;19717;42.614;23.418;2023-04-24T03:26:49;2.30;;;2.20;;
33357;SDS011;19717;42.614;23.418;2023-04-24T03:29:15;2.10;;;2.00;;
33357;SDS011;19717;42.614;23.418;2023-04-24T03:31:41;2.42;;;2.22;;
33357;SDS011;19717;42.614;23.418;2023-04-24T03:34:07;3.13;;;2.30;;
33357;SDS011;19717;42.614;23.418;2023-04-24T03:36:33;2.28;;;2.17;;
33357;SDS011;19717;42.614;23.418;2023-04-24T03:39:00;2.40;;;2.30;;
33357;SDS011;19717;42.614;23.418;2023-04-24T03:41:26;2.70;;;2.50;;
33357;SDS011;19717;42.614;23.418;2023-04-24T03:43:52;2.47;;;2.28;;
33357;SDS011;19717;42.614;23.418;2023-04-24T03:46:18;3.00;;;2.80;;
33357;SDS011;19717;42.614;23.418;2023-04-24T03:48:44;3.20;;;2.90;;
33357;SDS011;19717;42.614;23.418;2023-04-24T03:51:10;3.10;;;2.83;;
33357;SDS011;19717;42.614;23.418;2023-04-24T03:53:36;2.55;;;2.35;;
33357;SDS011;19717;42.614;23.418;2023-04-24T03:56:02;2.90;;;2.70;;
33357;SDS011;19717;42.614;23.418;2023-04-24T03:58:28;2.47;;;2.30;;
33357;SDS011;19717;42.614;23.418;2023-04-24T04:00:54;2.28;;;2.08;;
33357;SDS011;19717;42.614;23.418;2023-04-24T04:03:23;2.40;;;2.15;;
33357;SDS011;19717;42.614;23.418;2023-04-24T04:05:49;3.53;;;2.17;;
33357;SDS011;19717;42.614;23.418;2023-04-24T04:08:15;2.33;;;2.13;;
33357;SDS011;19717;42.614;23.418;2023-04-24T04:10:41;2.10;;;2.00;;
33357;SDS011;19717;42.614;23.418;2023-04-24T04:13:07;2.42;;;2.22;;
33357;SDS011;19717;42.614;23.418;2023-04-24T04:15:33;2.78;;;2.30;;
33357;SDS011;19717;42.614;23.418;2023-04-24T04:17:59;2.40;;;1.90;;
33357;SDS011;19717;42.614;23.418;2023-04-24T04:20:25;2.60;;;2.40;;
33357;SDS011;19717;42.614;23.418;2023-04-24T04:22:51;2.05;;;1.95;;
33357;SDS011;19717;42.614;23.418;2023-04-24T04:25:17;2.35;;;2.15;;
33357;SDS011;19717;42.614;23.418;2023-04-24T04:27:44;2.15;;;1.90;;
33357;SDS011;19717;42.614;23.418;2023-04-24T04:30:12;2.72;;;2.53;;
33357;SDS011;19717;42.614;23.418;2023-04-24T04:32:39;2.38;;;2.17;;
33357;SDS011;19717;42.614;23.418;2023-04-24T04:35:05;2.50;;;2.30;;
33357;SDS011;19717;42.614;23.418;2023-04-24T04:37:34;2.15;;;2.00;;
33357;SDS011;19717;42.614;23.418;2023-04-24T04:40:01;2.83;;;2.63;;
33357;SDS011;19717;42.614;23.418;2023-04-24T04:42:36;4.43;;;3.08;;
33357;SDS011;19717;42.614;23.418;2023-04-24T04:45:07;3.30;;;3.10;;
33357;SDS011;19717;42.614;23.418;2023-04-24T04:47:34;2.70;;;2.50;;
33357;SDS011;19717;42.614;23.418;2023-04-24T04:50:00;2.47;;;2.22;;
33357;SDS011;19717;42.614;23.418;2023-04-24T04:52:26;3.55;;;3.05;;
33357;SDS011;19717;42.614;23.418;2023-04-24T04:54:52;6.05;;;4.47;;
33357;SDS011;19717;42.614;23.418;2023-04-24T04:57:18;3.13;;;2.50;;
33357;SDS011;19717;42.614;23.418;2023-04-24T04:59:45;2.85;;;2.10;;
33357;SDS011;19717;42.614;23.418;2023-04-24T05:02:11;2.17;;;2.00;;
33357;SDS011;19717;42.614;23.418;2023-04-24T05:04:37;2.10;;;1.90;;
33357;SDS011;19717;42.614;23.418;2023-04-24T05:07:03;2.47;;;1.92;;
33357;SDS011;19717;42.614;23.418;2023-04-24T05:09:30;2.30;;;2.05;;
33357;SDS011;19717;42.614;23.418;2023-04-24T05:11:56;1.67;;;1.58;;
33357;SDS011;19717;42.614;23.418;2023-04-24T05:14:22;2.60;;;1.80;;
33357;SDS011;19717;42.614;23.418;2023-04-24T05:16:48;2.15;;;2.03;;
33357;SDS011;19717;42.614;23.418;2023-04-24T05:19:15;2.00;;;1.90;;
33357;SDS011;19717;42.614;23.418;2023-04-24T05:21:41;2.20;;;2.00;;
33357;SDS011;19717;42.614;23.418;2023-04-24T05:24:07;2.08;;;1.70;;
33357;SDS011;19717;42.614;23.418;2023-04-24T05:26:33;2.22;;;2.13;;
33357;SDS011;19717;42.614;23.418;2023-04-24T05:29:00;2.15;;;2.00;;
33357;SDS011;19717;42.614;23.418;2023-04-24T05:31:27;1.98;;;1.88;;
33357;SDS011;19717;42.614;23.418;2023-04-24T05:33:53;2.08;;;1.88;;
33357;SDS011;19717;42.614;23.418;2023-04-24T05:36:19;2.42;;;1.95;;
33357;SDS011;19717;42.614;23.418;2023-04-24T05:38:45;2.10;;;2.00;;
33357;SDS011;19717;42.614;23.418;2023-04-24T05:41:11;2.00;;;1.90;;
33357;SDS011;19717;42.614;23.418;2023-04-24T05:43:37;2.42;;;1.95;;
33357;SDS011;19717;42.614;23.418;2023-04-24T05:46:03;2.03;;;1.90;;
33357;SDS011;19717;42.614;23.418;2023-04-24T05:48:29;2.85;;;1.98;;
33357;SDS011;19717;42.614;23.418;2023-04-24T05:50:55;2.17;;;2.03;;
33357;SDS011;19717;42.614;23.418;2023-04-24T05:53:22;1.95;;;1.80;;
33357;SDS011;19717;42.614;23.418;2023-04-24T05:55:48;3.17;;;2.20;;
33357;SDS011;19717;42.614;23.418;2023-04-24T05:58:14;3.70;;;2.80;;
33357;SDS011;19717;42.614;23.418;2023-04-24T06:00:40;2.42;;;2.10;;
33357;SDS011;19717;42.614;23.418;2023-04-24T06:03:08;8.55;;;2.83;;
33357;SDS011;19717;42.614;23.418;2023-04-24T06:05:34;2.60;;;2.40;;
33357;SDS011;19717;42.614;23.418;2023-04-24T06:08:00;2.42;;;2.20;;
33357;SDS011;19717;42.614;23.418;2023-04-24T06:10:26;2.13;;;1.85;;
33357;SDS011;19717;42.614;23.418;2023-04-24T06:12:52;1.65;;;1.55;;
33357;SDS011;19717;42.614;23.418;2023-04-24T06:15:21;1.98;;;1.77;;
33357;SDS011;19717;42.614;23.418;2023-04-24T06:17:47;1.63;;;1.52;;
33357;SDS011;19717;42.614;23.418;2023-04-24T06:20:13;2.80;;;1.75;;
33357;SDS011;19717;42.614;23.418;2023-04-24T06:22:39;1.88;;;1.77;;
33357;SDS011;19717;42.614;23.418;2023-04-24T06:25:05;3.15;;;2.10;;
33357;SDS011;19717;42.614;23.418;2023-04-24T06:27:32;3.15;;;2.00;;
33357;SDS011;19717;42.614;23.418;2023-04-24T06:29:58;2.20;;;2.00;;
33357;SDS011;19717;42.614;23.418;2023-04-24T06:32:24;2.13;;;2.03;;
33357;SDS011;19717;42.614;23.418;2023-04-24T06:34:53;2.10;;;2.00;;
33357;SDS011;19717;42.614;23.418;2023-04-24T06:37:22;2.28;;;2.08;;
33357;SDS011;19717;42.614;23.418;2023-04-24T06:39:48;2.33;;;2.10;;
33357;SDS011;19717;42.614;23.418;2023-04-24T06:42:14;1.92;;;1.83;;
33357;SDS011;19717;42.614;23.418;2023-04-24T06:44:40;3.30;;;2.10;;
33357;SDS011;19717;42.614;23.418;2023-04-24T06:47:07;2.10;;;1.90;;
33357;SDS011;19717;42.614;23.418;2023-04-24T06:49:34;2.10;;;1.90;;
33357;SDS011;19717;42.614;23.418;2023-04-24T06:52:00;1.70;;;1.60;;
33357;SDS011;19717;42.614;23.418;2023-04-24T06:54:26;2.53;;;1.90;;
33357;SDS011;19717;42.614;23.418;2023-04-24T06:56:52;1.80;;;1.70;;
33357;SDS011;19717;42.614;23.418;2023-04-24T06:59:18;2.00;;;1.90;;
33357;SDS011;19717;42.614;23.418;2023-04-24T07:01:44;2.17;;;2.08;;
33357;SDS011;19717;42.614;23.418;2023-04-24T07:04:10;2.60;;;1.58;;
33357;SDS011;19717;42.614;23.418;2023-04-24T07:06:38;1.90;;;1.75;;
33357;SDS011;19717;42.614;23.418;2023-04-24T07:09:04;1.63;;;1.52;;
33357;SDS011;19717;42.614;23.418;2023-04-24T07:11:30;4.38;;;2.10;;
33357;SDS011;19717;42.614;23.418;2023-04-24T07:13:56;1.70;;;1.60;;
33357;SDS011;19717;42.614;23.418;2023-04-24T07:16:22;1.83;;;1.70;;
33357;SDS011;19717;42.614;23.418;2023-04-24T07:18:48;1.77;;;1.63;;
33357;SDS011;19717;42.614;23.418;2023-04-24T07:21:15;1.80;;;1.70;;
33357;SDS011;19717;42.614;23.418;2023-04-24T07:23:41;2.67;;;1.67;;
33357;SDS011;19717;42.614;23.418;2023-04-24T07:26:07;1.60;;;1.50;;
33357;SDS011;19717;42.614;23.418;2023-04-24T07:28:33;1.35;;;1.35;;
33357;SDS011;19717;42.614;23.418;2023-04-24T07:31:02;1.80;;;1.70;;
33357;SDS011;19717;42.614;23.418;2023-04-24T07:33:28;1.45;;;1.35;;
33357;SDS011;19717;42.614;23.418;2023-04-24T07:35:54;1.45;;;1.35;;
33357;SDS011;19717;42.614;23.418;2023-04-24T07:38:21;1.27;;;1.17;;
33357;SDS011;19717;42.614;23.418;2023-04-24T07:40:47;1.60;;;1.50;;
33357;SDS011;19717;42.614;23.418;2023-04-24T07:43:13;1.50;;;1.40;;
33357;SDS011;19717;42.614;23.418;2023-04-24T07:45:40;1.65;;;1.55;;
33357;SDS011;19717;42.614;23.418;2023-04-24T07:48:06;2.03;;;1.67;;
33357;SDS011;19717;42.614;23.418;2023-04-24T07:50:34;1.55;;;1.45;;
33357;SDS011;19717;42.614;23.418;2023-04-24T07:53:01;1.73;;;1.63;;
33357;SDS011;19717;42.614;23.418;2023-04-24T07:55:27;1.75;;;1.42;;
33357;SDS011;19717;42.614;23.418;2023-04-24T07:57:53;1.75;;;1.40;;
33357;SDS011;19717;42.614;23.418;2023-04-24T08:00:19;1.70;;;1.30;;
33357;SDS011;19717;42.614;23.418;2023-04-24T08:02:45;2.10;;;1.13;;
33357;SDS011;19717;42.614;23.418;2023-04-24T08:05:11;4.43;;;1.40;;
33357;SDS011;19717;42.614;23.418;2023-04-24T08:07:43;1.30;;;1.20;;
33357;SDS011;19717;42.614;23.418;2023-04-24T08:10:11;1.40;;;1.30;;
33357;SDS011;19717;42.614;23.418;2023-04-24T08:12:37;1.20;;;1.10;;
33357;SDS011;19717;42.614;23.418;2023-04-24T08:15:06;1.25;;;1.25;;
33357;SDS011;19717;42.614;23.418;2023-04-24T08:17:33;1.40;;;1.30;;
33357;SDS011;19717;42.614;23.418;2023-04-24T08:20:00;1.30;;;1.25;;
33357;SDS011;19717;42.614;23.418;2023-04-24T08:22:32;1.60;;;1.42;;
33357;SDS011;19717;42.614;23.418;2023-04-24T08:27:25;1.50;;;1.20;;
33357;SDS011;19717;42.614;23.418;2023-04-24T08:29:52;0.90;;;0.90;;
33357;SDS011;19717;42.614;23.418;2023-04-24T08:32:19;1.02;;;1.02;;
33357;SDS011;19717;42.614;23.418;2023-04-24T08:34:45;1.08;;;1.08;;
33357;SDS011;19717;42.614;23.418;2023-04-24T08:37:11;1.23;;;1.15;;
33357;SDS011;19717;42.614;23.418;2023-04-24T08:39:37;2.58;;;1.10;;
33357;SDS011;19717;42.614;23.418;2023-04-24T08:42:04;1.60;;;1.33;;
33357;SDS011;19717;42.614;23.418;2023-04-24T08:44:33;1.00;;;0.90;;
33357;SDS011;19717;42.614;23.418;2023-04-24T08:46:59;1.13;;;1.13;;
33357;SDS011;19717;42.614;23.418;2023-04-24T08:49:26;1.10;;;1.10;;
33357;SDS011;19717;42.614;23.418;2023-04-24T08:51:54;1.27;;;1.08;;
33357;SDS011;19717;42.614;23.418;2023-04-24T08:54:20;1.38;;;1.10;;
33357;SDS011;19717;42.614;23.418;2023-04-24T08:56:47;1.65;;;1.10;;
33357;SDS011;19717;42.614;23.418;2023-04-24T08:59:14;1.40;;;1.30;;
33357;SDS011;19717;42.614;23.418;2023-04-24T09:01:40;1.40;;;1.10;;
33357;SDS011;19717;42.614;23.418;2023-04-24T09:04:07;1.10;;;1.00;;
33357;SDS011;19717;42.614;23.418;2023-04-24T09:06:35;1.23;;;1.15;;
33357;SDS011;19717;42.614;23.418;2023-04-24T09:09:01;1.20;;;1.00;;
33357;SDS011;19717;42.614;23.418;2023-04-24T09:11:31;1.10;;;1.10;;
33357;SDS011;19717;42.614;23.418;2023-04-24T09:14:00;1.00;;;1.00;;
33357;SDS011;19717;42.614;23.418;2023-04-24T09:16:26;0.88;;;0.88;;
33357;SDS011;19717;42.614;23.418;2023-04-24T09:18:53;1.75;;;1.17;;
33357;SDS011;19717;42.614;23.418;2023-04-24T09:21:20;1.00;;;0.82;;
33357;SDS011;19717;42.614;23.418;2023-04-24T09:23:47;0.80;;;0.80;;
33357;SDS011;19717;42.614;23.418;2023-04-24T09:26:23;1.00;;;1.00;;
33357;SDS011;19717;42.614;23.418;2023-04-24T09:28:49;2.10;;;1.10;;
33357;SDS011;19717;42.614;23.418;2023-04-24T09:31:17;0.93;;;0.93;;
33357;SDS011;19717;42.614;23.418;2023-04-24T09:34:00;0.90;;;0.90;;
33357;SDS011;19717;42.614;23.418;2023-04-24T09:36:32;0.88;;;0.88;;
33357;SDS011;19717;42.614;23.418;2023-04-24T09:38:59;1.35;;;0.80;;
33357;SDS011;19717;42.614;23.418;2023-04-24T09:41:25;1.00;;;1.00;;
33357;SDS011;19717;42.614;23.418;2023-04-24T09:43:56;0.95;;;0.95;;
33357;SDS011;19717;42.614;23.418;2023-04-24T09:46:29;1.05;;;0.88;;
33357;SDS011;19717;42.614;23.418;2023-04-24T09:48:56;0.82;;;0.82;;
33357;SDS011;19717;42.614;23.418;2023-04-24T09:51:35;0.93;;;0.90;;
33357;SDS011;19717;42.614;23.418;2023-04-24T09:54:02;0.95;;;0.90;;
33357;SDS011;19717;42.614;23.418;2023-04-24T09:56:29;0.90;;;0.90;;
33357;SDS011;19717;42.614;23.418;2023-04-24T09:59:04;0.80;;;0.80;;
33357;SDS011;19717;42.614;23.418;2023-04-24T10:01:31;0.88;;;0.88;;
33357;SDS011;19717;42.614;23.418;2023-04-24T10:03:58;2.33;;;0.95;;
33357;SDS011;19717;42.614;23.418;2023-04-24T10:06:29;2.58;;;1.00;;
33357;SDS011;19717;42.614;23.418;2023-04-24T10:08:55;1.00;;;0.90;;
33357;SDS011;19717;42.614;23.418;2023-04-24T10:11:23;0.90;;;0.90;;
33357;SDS011;19717;42.614;23.418;2023-04-24T10:13:50;1.20;;;0.80;;
33357;SDS011;19717;42.614;23.418;2023-04-24T10:16:16;1.23;;;0.90;;
33357;SDS011;19717;42.614;23.418;2023-04-24T10:18:42;0.80;;;0.80;;
33357;SDS011;19717;42.614;23.418;2023-04-24T10:21:08;0.85;;;0.80;;
33357;SDS011;19717;42.614;23.418;2023-04-24T10:23:35;0.90;;;0.90;;
33357;SDS011;19717;42.614;23.418;2023-04-24T10:26:01;0.80;;;0.80;;
33357;SDS011;19717;42.614;23.418;2023-04-24T10:28:27;0.98;;;0.98;;
33357;SDS011;19717;42.614;23.418;2023-04-24T10:30:56;0.82;;;0.82;;
33357;SDS011;19717;42.614;23.418;2023-04-24T10:33:22;0.77;;;0.75;;
33357;SDS011;19717;42.614;23.418;2023-04-24T10:35:49;0.80;;;0.80;;
33357;SDS011;19717;42.614;23.418;2023-04-24T10:38:23;0.80;;;0.80;;
33357;SDS011;19717;42.614;23.418;2023-04-24T10:40:50;2.03;;;1.92;;
33357;SDS011;19717;42.614;23.418;2023-04-24T10:43:16;0.70;;;0.70;;
33357;SDS011;19717;42.614;23.418;2023-04-24T10:45:48;1.25;;;0.80;;
33357;SDS011;19717;42.614;23.418;2023-04-24T10:48:26;0.98;;;0.70;;
33357;SDS011;19717;42.614;23.418;2023-04-24T10:50:53;0.90;;;0.90;;
33357;SDS011;19717;42.614;23.418;2023-04-24T10:53:20;0.80;;;0.80;;
33357;SDS011;19717;42.614;23.418;2023-04-24T10:55:49;5.00;;;0.80;;
33357;SDS011;19717;42.614;23.418;2023-04-24T10:58:15;1.13;;;0.80;;
33357;SDS011;19717;42.614;23.418;2023-04-24T11:00:42;3.70;;;0.95;;
33357;SDS011;19717;42.614;23.418;2023-04-24T11:03:28;0.77;;;0.75;;
33357;SDS011;19717;42.614;23.418;2023-04-24T11:05:59;0.70;;;0.70;;
33357;SDS011;19717;42.614;23.418;2023-04-24T11:08:29;0.70;;;0.70;;
33357;SDS011;19717;42.614;23.418;2023-04-24T11:11:00;0.70;;;0.70;;
33357;SDS011;19717;42.614;23.418;2023-04-24T11:16:29;0.75;;;0.60;;
33357;SDS011;19717;42.614;23.418;2023-04-24T11:19:08;1.45;;;0.70;;
33357;SDS011;19717;42.614;23.418;2023-04-24T11:21:40;2.53;;;0.98;;
33357;SDS011;19717;42.614;23.418;2023-04-24T11:26:48;0.65;;;0.65;;
33357;SDS011;19717;42.614;23.418;2023-04-24T11:29:14;0.60;;;0.60;;
33357;SDS011;19717;42.614;23.418;2023-04-24T11:31:40;0.82;;;0.80;;
33357;SDS011;19717;42.614;23.418;2023-04-24T11:34:15;0.88;;;0.70;;
33357;SDS011;19717;42.614;23.418;2023-04-24T11:36:47;0.52;;;0.52;;
33357;SDS011;19717;42.614;23.418;2023-04-24T11:39:14;0.60;;;0.57;;
33357;SDS011;19717;42.614;23.418;2023-04-24T11:41:40;0.68;;;0.63;;
33357;SDS011;19717;42.614;23.418;2023-04-24T11:44:07;0.75;;;0.75;;
33357;SDS011;19717;42.614;23.418;2023-04-24T11:46:34;0.70;;;0.70;;
33357;SDS011;19717;42.614;23.418;2023-04-24T11:49:00;1.35;;;0.73;;
33357;SDS011;19717;42.614;23.418;2023-04-24T11:51:26;0.80;;;0.80;;
33357;SDS011;19717;42.614;23.418;2023-04-24T11:53:54;0.63;;;0.63;;
33357;SDS011;19717;42.614;23.418;2023-04-24T11:56:21;0.70;;;0.70;;
33357;SDS011;19717;42.614;23.418;2023-04-24T11:58:56;0.73;;;0.73;;
33357;SDS011;19717;42.614;23.418;2023-04-24T12:01:22;0.80;;;0.80;;
33357;SDS011;19717;42.614;23.418;2023-04-24T12:03:58;0.80;;;0.80;;
33357;SDS011;19717;42.614;23.418;2023-04-24T12:06:25;0.80;;;0.80;;
33357;SDS011;19717;42.614;23.418;2023-04-24T12:08:52;2.83;;;0.70;;
33357;SDS011;19717;42.614;23.418;2023-04-24T12:11:20;0.88;;;0.88;;
33357;SDS011;19717;42.614;23.418;2023-04-24T12:13:46;0.98;;;0.98;;
33357;SDS011;19717;42.614;23.418;2023-04-24T12:16:12;0.80;;;0.80;;
33357;SDS011;19717;42.614;23.418;2023-04-24T12:18:42;0.80;;;0.80;;
33357;SDS011;19717;42.614;23.418;2023-04-24T12:21:23;0.70;;;0.70;;
33357;SDS011;19717;42.614;23.418;2023-04-24T12:23:54;1.00;;;0.90;;
33357;SDS011;19717;42.614;23.418;2023-04-24T12:26:20;0.70;;;0.70;;
33357;SDS011;19717;42.614;23.418;2023-04-24T12:28:48;0.70;;;0.70;;
33357;SDS011;19717;42.614;23.418;2023-04-24T12:31:15;0.70;;;0.70;;
33357;SDS011;19717;42.614;23.418;2023-04-24T12:33:41;1.08;;;1.08;;
33357;SDS011;19717;42.614;23.418;2023-04-24T12:36:09;0.80;;;0.80;;
33357;SDS011;19717;42.614;23.418;2023-04-24T12:38:37;0.80;;;0.80;;
33357;SDS011;19717;42.614;23.418;2023-04-24T12:41:10;0.82;;;0.82;;
33357;SDS011;19717;42.614;23.418;2023-04-24T12:43:36;0.90;;;0.80;;
33357;SDS011;19717;42.614;23.418;2023-04-24T12:46:02;1.27;;;0.98;;
33357;SDS011;19717;42.614;23.418;2023-04-24T12:48:29;0.77;;;0.77;;
33357;SDS011;19717;42.614;23.418;2023-04-24T12:50:58;0.93;;;0.90;;
33357;SDS011;19717;42.614;23.418;2023-04-24T12:55:55;1.08;;;0.98;;
33357;SDS011;19717;42.614;23.418;2023-04-24T12:58:21;1.15;;;0.90;;
33357;SDS011;19717;42.614;23.418;2023-04-24T13:00:47;1.10;;;1.10;;
33357;SDS011;19717;42.614;23.418;2023-04-24T13:03:13;0.90;;;0.90;;
33357;SDS011;19717;42.614;23.418;2023-04-24T13:05:39;0.80;;;0.80;;
33357;SDS011;19717;42.614;23.418;2023-04-24T13:08:06;0.80;;;0.80;;
33357;SDS011;19717;42.614;23.418;2023-04-24T13:10:35;1.05;;;0.95;;
33357;SDS011;19717;42.614;23.418;2023-04-24T13:13:02;1.10;;;1.00;;
33357;SDS011;19717;42.614;23.418;2023-04-24T13:15:28;1.75;;;0.95;;
33357;SDS011;19717;42.614;23.418;2023-04-24T13:17:54;1.30;;;1.20;;
33357;SDS011;19717;42.614;23.418;2023-04-24T13:20:20;0.90;;;0.90;;
33357;SDS011;19717;42.614;23.418;2023-04-24T13:22:49;0.93;;;0.93;;
33357;SDS011;19717;42.614;23.418;2023-04-24T13:25:15;1.23;;;1.00;;
33357;SDS011;19717;42.614;23.418;2023-04-24T13:27:44;1.33;;;1.00;;
33357;SDS011;19717;42.614;23.418;2023-04-24T13:30:10;0.90;;;0.90;;
33357;SDS011;19717;42.614;23.418;2023-04-24T13:32:36;1.17;;;1.08;;
33357;SDS011;19717;42.614;23.418;2023-04-24T13:35:02;1.27;;;0.93;;
33357;SDS011;19717;42.614;23.418;2023-04-24T13:37:28;1.10;;;1.10;;
33357;SDS011;19717;42.614;23.418;2023-04-24T13:39:55;1.00;;;1.00;;
33357;SDS011;19717;42.614;23.418;2023-04-24T13:42:21;0.88;;;0.88;;
33357;SDS011;19717;42.614;23.418;2023-04-24T13:44:47;0.88;;;0.88;;
33357;SDS011;19717;42.614;23.418;2023-04-24T13:47:13;0.80;;;0.80;;
33357;SDS011;19717;42.614;23.418;2023-04-24T13:49:39;0.80;;;0.80;;
33357;SDS011;19717;42.614;23.418;2023-04-24T13:52:05;0.90;;;0.90;;
33357;SDS011;19717;42.614;23.418;2023-04-24T13:54:32;1.65;;;0.80;;
33357;SDS011;19717;42.614;23.418;2023-04-24T13:56:58;0.93;;;0.90;;
33357;SDS011;19717;42.614;23.418;2023-04-24T13:59:25;1.15;;;1.02;;
33357;SDS011;19717;42.614;23.418;2023-04-24T14:01:51;1.05;;;1.00;;
33357;SDS011;19717;42.614;23.418;2023-04-24T14:04:17;1.02;;;1.02;;
33357;SDS011;19717;42.614;23.418;2023-04-24T14:06:43;0.90;;;0.90;;
33357;SDS011;19717;42.614;23.418;2023-04-24T14:09:09;1.10;;;1.10;;
33357;SDS011;19717;42.614;23.418;2023-04-24T14:11:36;1.98;;;0.90;;
33357;SDS011;19717;42.614;23.418;2023-04-24T14:14:02;1.05;;;0.98;;
33357;SDS011;19717;42.614;23.418;2023-04-24T14:16:28;0.90;;;0.90;;
33357;SDS011;19717;42.614;23.418;2023-04-24T14:18:55;0.80;;;0.80;;
33357;SDS011;19717;42.614;23.418;2023-04-24T14:21:21;0.80;;;0.80;;
33357;SDS011;19717;42.614;23.418;2023-04-24T14:23:47;1.48;;;0.80;;
33357;SDS011;19717;42.614;23.418;2023-04-24T14:26:13;0.80;;;0.80;;
33357;SDS011;19717;42.614;23.418;2023-04-24T14:28:39;0.70;;;0.70;;
33357;SDS011;19717;42.614;23.418;2023-04-24T14:31:06;0.70;;;0.70;;
33357;SDS011;19717;42.614;23.418;2023-04-24T14:33:33;0.80;;;0.80;;
33357;SDS011;19717;42.614;23.418;2023-04-24T14:35:59;0.70;;;0.70;;
33357;SDS011;19717;42.614;23.418;2023-04-24T14:38:27;1.50;;;0.70;;
33357;SDS011;19717;42.614;23.418;2023-04-24T14:40:53;0.80;;;0.80;;
33357;SDS011;19717;42.614;23.418;2023-04-24T14:43:19;0.60;;;0.60;;